createdAt,value
2019-05-17T00:00:17.899Z,0.00
2019-05-17T00:01:17.861Z,0.00
2019-05-17T00:02:18.459Z,0.00
2019-05-17T00:03:17.841Z,0.00
2019-05-17T00:04:17.823Z,0.00
2019-05-17T00:05:17.941Z,0.00
2019-05-17T00:06:17.805Z,0.00
2019-05-17T00:07:17.806Z,0.00
2019-05-17T00:08:31.041Z,0.00
2019-05-17T00:09:18.780Z,0.00
2019-05-17T00:10:17.754Z,0.00
2019-05-17T00:11:17.743Z,0.00
2019-05-17T00:12:17.750Z,0.00
2019-05-17T00:13:17.722Z,0.00
2019-05-17T00:14:17.711Z,0.00
2019-05-17T00:15:17.706Z,0.00
2019-05-17T00:16:17.716Z,0.00
2019-05-17T00:17:17.714Z,0.00
2019-05-17T00:18:17.686Z,0.00
2019-05-17T00:19:17.653Z,0.00
2019-05-17T00:20:17.731Z,0.00
2019-05-17T00:21:17.633Z,0.00
2019-05-17T00:22:17.619Z,0.00
2019-05-17T00:23:17.623Z,0.00
2019-05-17T00:24:18.324Z,0.00
2019-05-17T00:25:17.589Z,0.00
2019-05-17T00:26:17.579Z,0.00
2019-05-17T00:27:17.563Z,0.00
2019-05-17T00:28:17.585Z,0.00
2019-05-17T00:29:17.556Z,0.00
2019-05-17T00:30:17.831Z,0.00
2019-05-17T00:31:17.519Z,0.00
2019-05-17T00:32:17.511Z,0.00
2019-05-17T00:33:17.525Z,0.00
2019-05-17T00:34:17.486Z,0.00
2019-05-17T00:35:18.006Z,0.00
2019-05-17T00:36:17.971Z,0.00
2019-05-17T00:37:17.568Z,0.00
2019-05-17T00:38:17.469Z,0.00
2019-05-17T00:39:17.465Z,0.00
2019-05-17T00:40:17.423Z,0.00
2019-05-17T00:41:17.713Z,0.00
2019-05-17T00:42:17.396Z,0.00
2019-05-17T00:43:17.404Z,0.00
2019-05-17T00:44:17.377Z,0.00
2019-05-17T00:45:17.760Z,0.00
2019-05-17T00:46:17.396Z,0.00
2019-05-17T00:47:17.350Z,0.00
2019-05-17T00:48:17.376Z,0.00
2019-05-17T00:49:17.351Z,0.00
2019-05-17T00:50:17.364Z,0.00
2019-05-17T00:51:17.305Z,0.00
2019-05-17T00:52:17.302Z,0.00
2019-05-17T00:53:17.303Z,0.00
2019-05-17T00:54:17.613Z,0.00
2019-05-17T00:55:17.696Z,0.00
2019-05-17T00:56:17.266Z,0.00
2019-05-17T00:57:17.240Z,0.00
2019-05-17T00:58:17.553Z,0.00
2019-05-17T00:59:17.285Z,0.00
2019-05-17T01:00:17.414Z,0.00
2019-05-17T01:01:17.197Z,0.00
2019-05-17T01:02:17.208Z,0.00
2019-05-17T01:03:17.267Z,0.00
2019-05-17T01:04:17.476Z,0.00
2019-05-17T01:05:17.365Z,0.00
2019-05-17T01:06:17.149Z,0.00
2019-05-17T01:07:17.710Z,0.00
2019-05-17T01:08:17.560Z,0.00
2019-05-17T01:09:17.227Z,0.00
2019-05-17T01:10:17.098Z,0.00
2019-05-17T01:11:17.081Z,0.00
2019-05-17T01:12:17.075Z,0.00
2019-05-17T01:13:17.421Z,0.00
2019-05-17T01:14:17.689Z,0.00
2019-05-17T01:15:17.039Z,0.00
2019-05-17T01:16:17.035Z,0.00
2019-05-17T01:17:17.012Z,0.00
2019-05-17T01:18:16.998Z,0.00
2019-05-17T01:19:17.012Z,0.00
2019-05-17T01:20:17.488Z,0.00
2019-05-17T01:21:17.008Z,0.00
2019-05-17T01:22:17.468Z,0.00
2019-05-17T01:23:16.945Z,0.00
2019-05-17T01:24:17.458Z,0.00
2019-05-17T01:25:17.346Z,0.00
2019-05-17T01:26:18.423Z,0.00
2019-05-17T01:27:17.347Z,0.00
2019-05-17T01:28:16.887Z,0.00
2019-05-17T01:29:17.505Z,0.00
2019-05-17T01:30:17.445Z,0.00
2019-05-17T01:31:17.351Z,0.00
2019-05-17T01:32:17.334Z,0.00
2019-05-17T01:33:17.268Z,0.00
2019-05-17T01:34:16.892Z,0.00
2019-05-17T01:35:17.052Z,0.00
2019-05-17T01:36:17.289Z,0.00
2019-05-17T01:37:17.294Z,0.00
2019-05-17T01:38:17.773Z,0.00
2019-05-17T01:39:21.129Z,0.00
2019-05-17T01:40:17.576Z,0.00
2019-05-17T01:41:17.349Z,0.00
2019-05-17T01:42:17.327Z,0.00
2019-05-17T01:43:16.812Z,0.00
2019-05-17T01:44:16.911Z,0.00
2019-05-17T01:45:16.933Z,0.00
2019-05-17T01:46:17.215Z,0.00
2019-05-17T01:47:16.798Z,0.00
2019-05-17T01:48:16.680Z,0.00
2019-05-17T01:49:16.688Z,0.00
2019-05-17T01:50:17.478Z,0.00
2019-05-17T01:51:17.051Z,0.00
2019-05-17T01:52:16.835Z,0.00
2019-05-17T01:53:16.776Z,0.00
2019-05-17T01:54:17.598Z,0.00
2019-05-17T01:55:17.366Z,0.00
2019-05-17T01:56:17.028Z,0.00
2019-05-17T01:57:16.979Z,0.00
2019-05-17T01:58:16.564Z,0.00
2019-05-17T01:59:17.324Z,0.00
2019-05-17T02:00:17.538Z,0.00
2019-05-17T02:01:17.089Z,0.00
2019-05-17T02:02:16.522Z,0.00
2019-05-17T02:03:17.313Z,0.00
2019-05-17T02:04:17.362Z,0.00
2019-05-17T02:05:17.291Z,0.00
2019-05-17T02:06:16.673Z,0.00
2019-05-17T02:07:17.298Z,0.00
2019-05-17T02:08:17.109Z,0.00
2019-05-17T02:09:32.339Z,0.00
2019-05-17T02:10:17.445Z,0.00
2019-05-17T02:11:18.468Z,0.00
2019-05-17T02:12:17.318Z,0.00
2019-05-17T02:13:16.593Z,0.00
2019-05-17T02:14:16.711Z,0.00
2019-05-17T02:15:16.629Z,0.00
2019-05-17T02:16:16.624Z,0.00
2019-05-17T02:17:17.420Z,0.00
2019-05-17T02:18:17.369Z,0.00
2019-05-17T02:19:17.444Z,0.00
2019-05-17T02:20:17.016Z,0.00
2019-05-17T02:21:16.816Z,0.00
2019-05-17T02:22:16.852Z,0.00
2019-05-17T02:23:17.435Z,0.00
2019-05-17T02:24:16.906Z,0.00
2019-05-17T02:25:16.708Z,0.00
2019-05-17T02:26:17.407Z,0.00
2019-05-17T02:27:16.234Z,0.00
2019-05-17T02:28:16.225Z,0.00
2019-05-17T02:29:16.220Z,0.00
2019-05-17T02:30:16.222Z,0.00
2019-05-17T02:31:16.193Z,0.00
2019-05-17T02:32:16.183Z,0.00
2019-05-17T02:33:16.172Z,0.00
2019-05-17T02:34:16.187Z,0.00
2019-05-17T02:35:16.158Z,0.00
2019-05-17T02:36:16.133Z,0.00
2019-05-17T02:37:16.135Z,0.00
2019-05-17T02:38:16.117Z,0.00
2019-05-17T02:39:16.098Z,0.00
2019-05-17T02:40:16.111Z,0.00
2019-05-17T02:41:16.081Z,0.00
2019-05-17T02:42:16.081Z,0.00
2019-05-17T02:43:16.058Z,0.00
2019-05-17T02:44:16.046Z,0.00
2019-05-17T02:45:16.056Z,0.00
2019-05-17T02:46:16.022Z,0.00
2019-05-17T02:47:16.513Z,0.00
2019-05-17T02:48:16.008Z,0.00
2019-05-17T02:49:15.990Z,0.00
2019-05-17T02:50:16.005Z,0.00
2019-05-17T02:51:15.964Z,0.00
2019-05-17T02:52:16.058Z,0.00
2019-05-17T02:53:15.946Z,0.00
2019-05-17T02:54:16.469Z,0.00
2019-05-17T02:55:15.959Z,0.00
2019-05-17T02:56:15.912Z,0.00
2019-05-17T02:57:15.911Z,0.00
2019-05-17T02:58:15.892Z,0.00
2019-05-17T02:59:16.451Z,0.00
2019-05-17T03:00:15.912Z,0.00
2019-05-17T03:01:15.851Z,0.00
2019-05-17T03:02:15.853Z,0.00
2019-05-17T03:03:15.836Z,0.00
2019-05-17T03:04:15.827Z,0.00
2019-05-17T03:05:15.843Z,0.00
2019-05-17T03:06:15.832Z,0.00
2019-05-17T03:07:15.785Z,0.00
2019-05-17T03:08:15.782Z,0.00
2019-05-17T03:09:15.762Z,0.00
2019-05-17T03:10:23.567Z,0.00
2019-05-17T03:11:16.740Z,0.00
2019-05-17T03:12:15.743Z,0.00
2019-05-17T03:13:18.013Z,0.00
2019-05-17T03:14:15.711Z,0.00
2019-05-17T03:15:15.723Z,0.00
2019-05-17T03:16:15.722Z,5.62
2019-05-17T03:17:15.689Z,5.62
2019-05-17T03:18:15.674Z,5.62
2019-05-17T03:19:15.654Z,5.62
2019-05-17T03:20:15.659Z,5.62
2019-05-17T03:21:15.649Z,5.62
2019-05-17T03:22:15.629Z,5.62
2019-05-17T03:23:15.637Z,5.62
2019-05-17T03:24:15.614Z,5.62
2019-05-17T03:25:15.610Z,11.25
2019-05-17T03:26:15.582Z,11.25
2019-05-17T03:27:15.589Z,11.25
2019-05-17T03:28:15.563Z,11.25
2019-05-17T03:29:15.560Z,11.25
2019-05-17T03:30:18.316Z,11.25
2019-05-17T03:31:17.269Z,11.25
2019-05-17T03:32:16.935Z,11.25
2019-05-17T03:33:16.762Z,11.25
2019-05-17T03:34:17.421Z,11.25
2019-05-17T03:35:17.599Z,11.25
2019-05-17T03:36:17.263Z,16.88
2019-05-17T03:37:16.332Z,16.88
2019-05-17T03:38:15.451Z,16.88
2019-05-17T03:39:15.439Z,16.88
2019-05-17T03:40:30.596Z,16.88
2019-05-17T03:41:23.416Z,16.88
2019-05-17T03:42:16.404Z,16.88
2019-05-17T03:43:15.391Z,16.88
2019-05-17T03:44:15.379Z,16.88
2019-05-17T03:45:15.377Z,16.88
2019-05-17T03:46:15.379Z,16.88
2019-05-17T03:47:15.339Z,16.88
2019-05-17T03:48:15.343Z,22.50
2019-05-17T03:49:15.323Z,22.50
2019-05-17T03:50:15.312Z,22.50
2019-05-17T03:51:15.318Z,22.50
2019-05-17T03:52:15.289Z,22.50
2019-05-17T03:53:15.299Z,22.50
2019-05-17T03:54:15.274Z,22.50
2019-05-17T03:55:15.267Z,22.50
2019-05-17T03:56:15.256Z,28.12
2019-05-17T03:57:15.235Z,28.12
2019-05-17T03:58:15.222Z,28.12
2019-05-17T03:59:15.206Z,28.12
2019-05-17T04:00:15.202Z,28.12
2019-05-17T04:01:15.219Z,28.12
2019-05-17T04:02:15.190Z,33.75
2019-05-17T04:03:15.191Z,33.75
2019-05-17T04:04:15.184Z,33.75
2019-05-17T04:05:15.148Z,33.75
2019-05-17T04:06:15.226Z,33.75
2019-05-17T04:07:15.124Z,33.75
2019-05-17T04:08:15.119Z,33.75
2019-05-17T04:09:15.103Z,39.38
2019-05-17T04:10:15.629Z,39.38
2019-05-17T04:11:25.703Z,39.38
2019-05-17T04:12:16.076Z,45.00
2019-05-17T04:13:15.061Z,45.00
2019-05-17T04:14:15.053Z,45.00
2019-05-17T04:15:15.046Z,50.62
2019-05-17T04:16:15.050Z,45.00
2019-05-17T04:17:15.009Z,50.62
2019-05-17T04:18:15.004Z,50.62
2019-05-17T04:19:15.007Z,50.62
2019-05-17T04:20:14.979Z,56.25
2019-05-17T04:21:14.961Z,56.25
2019-05-17T04:22:14.960Z,56.25
2019-05-17T04:23:15.453Z,56.25
2019-05-17T04:24:14.937Z,61.88
2019-05-17T04:25:14.948Z,61.88
2019-05-17T04:26:14.923Z,61.88
2019-05-17T04:27:14.924Z,61.88
2019-05-17T04:28:14.889Z,56.25
2019-05-17T04:30:15.935Z,56.25
2019-05-17T04:31:14.876Z,56.25
2019-05-17T04:32:14.875Z,56.25
2019-05-17T04:33:14.837Z,50.62
2019-05-17T04:34:14.823Z,50.62
2019-05-17T04:35:14.812Z,50.62
2019-05-17T04:36:14.824Z,50.62
2019-05-17T04:37:14.805Z,50.62
2019-05-17T04:38:14.774Z,50.62
2019-05-17T04:39:14.767Z,56.25
2019-05-17T04:40:14.981Z,56.25
2019-05-17T04:41:14.756Z,61.88
2019-05-17T04:42:14.757Z,61.88
2019-05-17T04:43:14.727Z,67.50
2019-05-17T04:44:14.713Z,73.12
2019-05-17T04:45:14.719Z,73.12
2019-05-17T04:46:14.690Z,67.50
2019-05-17T04:47:14.707Z,67.50
2019-05-17T04:48:14.667Z,67.50
2019-05-17T04:49:14.661Z,78.75
2019-05-17T04:50:14.648Z,78.75
2019-05-17T04:51:14.651Z,84.38
2019-05-17T04:52:14.650Z,95.62
2019-05-17T04:53:14.617Z,95.62
2019-05-17T04:54:14.604Z,101.25
2019-05-17T04:55:14.592Z,90.00
2019-05-17T04:56:14.578Z,90.00
2019-05-17T04:57:14.723Z,90.00
2019-05-17T04:58:14.556Z,95.62
2019-05-17T04:59:14.544Z,90.00
2019-05-17T05:00:14.533Z,90.00
2019-05-17T05:01:14.522Z,112.50
2019-05-17T05:02:14.533Z,112.50
2019-05-17T05:03:14.500Z,112.50
2019-05-17T05:04:15.464Z,106.88
2019-05-17T05:05:14.622Z,112.50
2019-05-17T05:06:14.481Z,112.50
2019-05-17T05:07:14.479Z,106.88
2019-05-17T05:08:14.446Z,90.00
2019-05-17T05:09:14.446Z,106.88
2019-05-17T05:10:14.594Z,106.88
2019-05-17T05:11:14.413Z,112.50
2019-05-17T05:12:14.441Z,106.88
2019-05-17T05:13:14.389Z,112.50
2019-05-17T05:14:14.382Z,118.12
2019-05-17T05:15:14.382Z,118.12
2019-05-17T05:16:14.352Z,112.50
2019-05-17T05:17:14.353Z,112.50
2019-05-17T05:18:14.364Z,112.50
2019-05-17T05:19:14.326Z,112.50
2019-05-17T05:20:14.310Z,118.12
2019-05-17T05:21:14.309Z,123.75
2019-05-17T05:22:16.943Z,129.38
2019-05-17T05:23:14.307Z,129.38
2019-05-17T05:24:14.270Z,129.38
2019-05-17T05:25:14.250Z,129.38
2019-05-17T05:26:14.243Z,129.38
2019-05-17T05:27:14.240Z,123.75
2019-05-17T05:28:14.243Z,123.75
2019-05-17T05:29:14.230Z,129.38
2019-05-17T05:30:14.191Z,129.38
2019-05-17T05:31:14.196Z,129.38
2019-05-17T05:32:14.208Z,135.00
2019-05-17T05:33:14.181Z,135.00
2019-05-17T05:34:14.151Z,135.00
2019-05-17T05:35:14.152Z,135.00
2019-05-17T05:36:14.129Z,140.62
2019-05-17T05:37:14.128Z,140.62
2019-05-17T05:38:14.135Z,140.62
2019-05-17T05:39:14.099Z,140.62
2019-05-17T05:40:14.087Z,135.00
2019-05-17T05:41:14.092Z,135.00
2019-05-17T05:42:14.241Z,140.62
2019-05-17T05:43:14.069Z,140.62
2019-05-17T05:44:14.037Z,151.88
2019-05-17T05:45:14.027Z,157.50
2019-05-17T05:46:14.019Z,157.50
2019-05-17T05:47:14.010Z,163.12
2019-05-17T05:48:14.028Z,163.12
2019-05-17T05:49:14.005Z,163.12
2019-05-17T05:50:13.977Z,163.12
2019-05-17T05:51:13.968Z,163.12
2019-05-17T05:52:13.955Z,163.12
2019-05-17T05:53:13.959Z,163.12
2019-05-17T05:54:13.931Z,163.12
2019-05-17T05:55:13.935Z,163.12
2019-05-17T05:56:13.909Z,157.50
2019-05-17T05:57:13.899Z,163.12
2019-05-17T05:58:13.915Z,157.50
2019-05-17T05:59:13.906Z,157.50
2019-05-17T06:00:13.880Z,163.12
2019-05-17T06:01:14.284Z,163.12
2019-05-17T06:02:13.838Z,163.12
2019-05-17T06:03:13.835Z,168.75
2019-05-17T06:04:13.839Z,163.12
2019-05-17T06:05:17.241Z,157.50
2019-05-17T06:06:13.829Z,151.88
2019-05-17T06:07:13.801Z,146.25
2019-05-17T06:08:13.777Z,135.00
2019-05-17T06:09:13.789Z,140.62
2019-05-17T06:10:13.751Z,140.62
2019-05-17T06:11:13.737Z,140.62
2019-05-17T06:12:22.920Z,140.62
2019-05-17T06:13:14.720Z,140.62
2019-05-17T06:14:13.750Z,140.62
2019-05-17T06:15:13.696Z,140.62
2019-05-17T06:16:13.723Z,140.62
2019-05-17T06:17:13.677Z,140.62
2019-05-17T06:18:13.667Z,140.62
2019-05-17T06:19:13.675Z,140.62
2019-05-17T06:20:13.638Z,140.62
2019-05-17T06:21:13.631Z,140.62
2019-05-17T06:22:13.620Z,140.62
2019-05-17T06:23:13.619Z,140.62
2019-05-17T06:24:13.626Z,140.62
2019-05-17T06:25:15.580Z,140.62
2019-05-17T06:26:13.565Z,146.25
2019-05-17T06:27:13.559Z,146.25
2019-05-17T06:28:13.549Z,146.25
2019-05-17T06:29:13.558Z,146.25
2019-05-17T06:30:13.528Z,146.25
2019-05-17T06:31:15.186Z,146.25
2019-05-17T06:32:13.505Z,146.25
2019-05-17T06:33:27.147Z,151.88
2019-05-17T06:34:14.497Z,151.88
2019-05-17T06:35:13.473Z,151.88
2019-05-17T06:36:13.825Z,151.88
2019-05-17T06:37:16.486Z,151.88
2019-05-17T06:38:13.447Z,151.88
2019-05-17T06:39:13.453Z,151.88
2019-05-17T06:40:13.495Z,151.88
2019-05-17T06:41:13.408Z,157.50
2019-05-17T06:42:13.393Z,157.50
2019-05-17T06:43:13.467Z,157.50
2019-05-17T06:44:13.391Z,163.12
2019-05-17T06:45:13.368Z,163.12
2019-05-17T06:46:13.359Z,163.12
2019-05-17T06:47:13.344Z,163.12
2019-05-17T06:48:13.338Z,163.12
2019-05-17T06:49:13.332Z,168.75
2019-05-17T06:50:14.472Z,168.75
2019-05-17T06:51:13.305Z,168.75
2019-05-17T06:52:13.280Z,168.75
2019-05-17T06:53:13.275Z,168.75
2019-05-17T06:54:13.295Z,174.38
2019-05-17T06:55:13.370Z,174.38
2019-05-17T06:56:13.237Z,174.38
2019-05-17T06:57:13.223Z,174.38
2019-05-17T06:58:13.215Z,174.38
2019-05-17T06:59:13.205Z,174.38
2019-05-17T07:00:19.867Z,174.38
2019-05-17T07:01:14.187Z,174.38
2019-05-17T07:02:13.175Z,174.38
2019-05-17T07:03:13.159Z,180.00
2019-05-17T07:04:13.143Z,185.62
2019-05-17T07:05:13.305Z,196.88
2019-05-17T07:06:13.127Z,196.88
2019-05-17T07:07:13.122Z,191.25
2019-05-17T07:08:13.121Z,191.25
2019-05-17T07:09:13.089Z,185.62
2019-05-17T07:10:13.104Z,163.12
2019-05-17T07:11:13.089Z,157.50
2019-05-17T07:12:13.059Z,163.12
2019-05-17T07:13:13.044Z,168.75
2019-05-17T07:14:13.036Z,202.50
2019-05-17T07:15:13.084Z,185.62
2019-05-17T07:16:13.012Z,191.25
2019-05-17T07:17:12.999Z,196.88
2019-05-17T07:18:12.994Z,196.88
2019-05-17T07:19:12.979Z,196.88
2019-05-17T07:20:13.018Z,191.25
2019-05-17T07:21:12.956Z,196.88
2019-05-17T07:22:12.948Z,196.88
2019-05-17T07:23:12.937Z,196.88
2019-05-17T07:24:12.926Z,191.25
2019-05-17T07:25:12.940Z,191.25
2019-05-17T07:26:12.903Z,196.88
2019-05-17T07:27:12.889Z,196.88
2019-05-17T07:28:12.889Z,196.88
2019-05-17T07:29:12.869Z,196.88
2019-05-17T07:30:12.887Z,196.88
2019-05-17T07:31:12.852Z,196.88
2019-05-17T07:32:12.837Z,196.88
2019-05-17T07:33:12.819Z,196.88
2019-05-17T07:34:12.815Z,196.88
2019-05-17T07:35:12.819Z,196.88
2019-05-17T07:36:12.790Z,196.88
2019-05-17T07:37:12.781Z,202.50
2019-05-17T07:38:12.779Z,202.50
2019-05-17T07:39:12.760Z,202.50
2019-05-17T07:40:12.763Z,202.50
2019-05-17T07:41:12.736Z,202.50
2019-05-17T07:42:12.778Z,202.50
2019-05-17T07:43:14.940Z,208.12
2019-05-17T07:44:12.697Z,208.12
2019-05-17T07:45:12.728Z,208.12
2019-05-17T07:46:12.681Z,208.12
2019-05-17T07:47:12.680Z,208.12
2019-05-17T07:48:12.659Z,208.12
2019-05-17T07:49:12.649Z,213.75
2019-05-17T07:50:13.082Z,208.12
2019-05-17T07:51:12.666Z,208.12
2019-05-17T07:52:12.616Z,208.12
2019-05-17T07:53:12.615Z,208.12
2019-05-17T07:54:12.583Z,213.75
2019-05-17T07:55:12.585Z,213.75
2019-05-17T07:56:12.587Z,208.12
2019-05-17T07:57:12.557Z,213.75
2019-05-17T07:58:12.551Z,213.75
2019-05-17T07:59:12.531Z,213.75
2019-05-17T08:00:12.532Z,213.75
2019-05-17T08:01:12.600Z,213.75
2019-05-17T08:02:12.504Z,213.75
2019-05-17T08:03:13.558Z,213.75
2019-05-17T08:04:12.479Z,213.75
2019-05-17T08:05:12.475Z,219.38
2019-05-17T08:06:12.559Z,219.38
2019-05-17T08:07:12.452Z,219.38
2019-05-17T08:08:12.447Z,219.38
2019-05-17T08:09:14.218Z,219.38
2019-05-17T08:10:12.412Z,225.00
2019-05-17T08:11:12.415Z,225.00
2019-05-17T08:12:12.393Z,225.00
2019-05-17T08:13:25.819Z,225.00
2019-05-17T08:14:26.470Z,225.00
2019-05-17T08:15:13.351Z,225.00
2019-05-17T08:16:12.371Z,219.38
2019-05-17T08:17:12.336Z,219.38
2019-05-17T08:18:12.321Z,225.00
2019-05-17T08:19:12.307Z,225.00
2019-05-17T08:20:12.430Z,225.00
2019-05-17T08:21:12.308Z,225.00
2019-05-17T08:22:12.317Z,225.00
2019-05-17T08:23:12.264Z,225.00
2019-05-17T08:24:12.264Z,230.62
2019-05-17T08:25:12.245Z,230.62
2019-05-17T08:26:12.255Z,230.62
2019-05-17T08:27:12.220Z,230.62
2019-05-17T08:28:12.210Z,230.62
2019-05-17T08:29:12.199Z,230.62
2019-05-17T08:30:12.189Z,236.25
2019-05-17T08:31:12.588Z,236.25
2019-05-17T08:32:12.163Z,236.25
2019-05-17T08:33:12.155Z,236.25
2019-05-17T08:34:12.138Z,236.25
2019-05-17T08:35:12.135Z,236.25
2019-05-17T08:36:12.143Z,241.88
2019-05-17T08:37:12.131Z,241.88
2019-05-17T08:38:12.102Z,247.50
2019-05-17T08:39:12.093Z,247.50
2019-05-17T08:40:15.056Z,253.12
2019-05-17T08:41:12.081Z,247.50
2019-05-17T08:42:12.096Z,253.12
2019-05-17T08:43:12.057Z,253.12
2019-05-17T08:44:12.039Z,253.12
2019-05-17T08:45:12.019Z,258.75
2019-05-17T08:46:12.026Z,258.75
2019-05-17T08:47:11.995Z,258.75
2019-05-17T08:48:11.991Z,264.38
2019-05-17T08:49:11.971Z,264.38
2019-05-17T08:50:11.967Z,264.38
2019-05-17T08:51:11.972Z,270.00
2019-05-17T08:52:11.951Z,270.00
2019-05-17T08:53:11.953Z,270.00
2019-05-17T08:54:11.944Z,270.00
2019-05-17T08:55:11.933Z,270.00
2019-05-17T08:56:11.916Z,270.00
2019-05-17T08:57:11.887Z,275.62
2019-05-17T08:58:11.877Z,275.62
2019-05-17T08:59:11.868Z,275.62
2019-05-17T09:00:11.846Z,275.62
2019-05-17T09:01:11.862Z,281.25
2019-05-17T09:02:11.827Z,286.88
2019-05-17T09:03:11.826Z,286.88
2019-05-17T09:04:11.823Z,298.12
2019-05-17T09:05:11.804Z,298.12
2019-05-17T09:06:12.686Z,309.38
2019-05-17T09:07:11.921Z,326.25
2019-05-17T09:08:11.763Z,331.88
2019-05-17T09:09:11.747Z,343.12
2019-05-17T09:10:11.749Z,360.00
2019-05-17T09:11:11.742Z,388.12
2019-05-17T09:12:11.748Z,399.38
2019-05-17T09:13:14.668Z,416.25
2019-05-17T09:14:11.698Z,455.62
2019-05-17T09:15:11.727Z,466.88
2019-05-17T09:16:11.686Z,466.88
2019-05-17T09:17:11.738Z,461.25
2019-05-17T09:18:11.650Z,478.12
2019-05-17T09:19:11.641Z,495.00
2019-05-17T09:20:11.645Z,500.62
2019-05-17T09:21:11.616Z,495.00
2019-05-17T09:22:11.628Z,478.12
2019-05-17T09:23:11.598Z,455.62
2019-05-17T09:24:11.594Z,455.62
2019-05-17T09:25:18.488Z,466.88
2019-05-17T09:26:12.562Z,489.38
2019-05-17T09:27:11.576Z,478.12
2019-05-17T09:28:11.548Z,455.62
2019-05-17T09:29:11.524Z,427.50
2019-05-17T09:30:11.525Z,421.88
2019-05-17T09:31:11.508Z,450.00
2019-05-17T09:32:11.530Z,478.12
2019-05-17T09:33:11.618Z,478.12
2019-05-17T09:34:11.476Z,450.00
2019-05-17T09:35:12.075Z,427.50
2019-05-17T09:36:11.489Z,450.00
2019-05-17T09:37:14.497Z,444.38
2019-05-17T09:38:11.430Z,382.50
2019-05-17T09:39:11.421Z,455.62
2019-05-17T09:40:11.407Z,472.50
2019-05-17T09:41:11.398Z,450.00
2019-05-17T09:42:11.402Z,433.12
2019-05-17T09:43:11.371Z,421.88
2019-05-17T09:44:15.843Z,421.88
2019-05-17T09:45:12.351Z,410.62
2019-05-17T09:46:11.396Z,399.38
2019-05-17T09:47:11.363Z,382.50
2019-05-17T09:48:11.327Z,376.88
2019-05-17T09:49:11.309Z,382.50
2019-05-17T09:50:11.300Z,388.12
2019-05-17T09:51:11.285Z,410.62
2019-05-17T09:52:11.293Z,466.88
2019-05-17T09:53:11.259Z,540.00
2019-05-17T09:54:11.245Z,607.50
2019-05-17T09:55:11.259Z,613.12
2019-05-17T09:56:11.233Z,562.50
2019-05-17T09:57:11.254Z,556.88
2019-05-17T09:58:11.209Z,585.00
2019-05-17T09:59:11.217Z,534.38
2019-05-17T10:00:11.184Z,506.25
2019-05-17T10:01:11.176Z,506.25
2019-05-17T10:02:11.157Z,528.75
2019-05-17T10:03:11.166Z,500.62
2019-05-17T10:04:13.400Z,472.50
2019-05-17T10:05:11.142Z,472.50
2019-05-17T10:06:11.119Z,489.38
2019-05-17T10:07:11.115Z,495.00
2019-05-17T10:08:11.242Z,528.75
2019-05-17T10:09:11.079Z,579.38
2019-05-17T10:10:11.111Z,641.25
2019-05-17T10:11:12.111Z,928.12
2019-05-17T10:12:11.061Z,2643.75
2019-05-17T10:13:11.065Z,3931.88
2019-05-17T10:14:24.616Z,3785.62
2019-05-17T10:15:12.026Z,3459.38
2019-05-17T10:16:11.024Z,3583.12
2019-05-17T10:17:10.989Z,4263.75
2019-05-17T10:18:11.359Z,4781.25
2019-05-17T10:19:10.969Z,4325.62
2019-05-17T10:20:11.062Z,4235.62
2019-05-17T10:21:10.960Z,804.38
2019-05-17T10:22:10.947Z,1001.25
2019-05-17T10:23:11.004Z,3813.75
2019-05-17T10:24:10.913Z,911.25
2019-05-17T10:25:10.903Z,978.75
2019-05-17T10:26:10.893Z,4275.00
2019-05-17T10:27:11.165Z,1456.88
2019-05-17T10:28:10.903Z,3279.38
2019-05-17T10:29:10.867Z,4584.38
2019-05-17T10:30:10.861Z,4471.88
2019-05-17T10:31:11.981Z,3881.25
2019-05-17T10:32:10.835Z,759.38
2019-05-17T10:33:10.841Z,540.00
2019-05-17T10:34:10.835Z,444.38
2019-05-17T10:35:10.817Z,421.88
2019-05-17T10:36:10.787Z,438.75
2019-05-17T10:37:10.773Z,455.62
2019-05-17T10:38:10.792Z,427.50
2019-05-17T10:39:10.764Z,399.38
2019-05-17T10:40:10.925Z,990.00
2019-05-17T10:41:10.726Z,877.50
2019-05-17T10:42:10.716Z,585.00
2019-05-17T10:43:10.731Z,382.50
2019-05-17T10:44:10.709Z,405.00
2019-05-17T10:45:11.230Z,455.62
2019-05-17T10:46:10.782Z,945.00
2019-05-17T10:47:10.669Z,1164.38
2019-05-17T10:48:10.670Z,624.38
2019-05-17T10:49:10.991Z,483.75
2019-05-17T10:50:11.089Z,348.75
2019-05-17T10:51:13.252Z,303.75
2019-05-17T10:52:10.626Z,298.12
2019-05-17T10:53:10.644Z,298.12
2019-05-17T10:54:10.592Z,264.38
2019-05-17T10:55:10.922Z,264.38
2019-05-17T10:56:10.580Z,303.75
2019-05-17T10:57:10.673Z,337.50
2019-05-17T10:58:10.618Z,455.62
2019-05-17T10:59:10.530Z,382.50
2019-05-17T11:00:10.525Z,326.25
2019-05-17T11:01:10.507Z,326.25
2019-05-17T11:02:10.505Z,331.88
2019-05-17T11:03:10.519Z,343.12
2019-05-17T11:04:10.597Z,360.00
2019-05-17T11:05:10.746Z,360.00
2019-05-17T11:06:11.117Z,326.25
2019-05-17T11:07:10.659Z,320.62
2019-05-17T11:08:10.965Z,309.38
2019-05-17T11:09:10.453Z,298.12
2019-05-17T11:10:11.675Z,286.88
2019-05-17T11:11:10.399Z,275.62
2019-05-17T11:12:10.398Z,264.38
2019-05-17T11:13:10.392Z,258.75
2019-05-17T11:14:10.374Z,258.75
2019-05-17T11:15:11.989Z,270.00
2019-05-17T11:16:10.353Z,275.62
2019-05-17T11:17:10.339Z,281.25
2019-05-17T11:18:10.345Z,292.50
2019-05-17T11:19:10.316Z,309.38
2019-05-17T11:20:10.313Z,337.50
2019-05-17T11:21:10.289Z,365.62
2019-05-17T11:22:10.365Z,393.75
2019-05-17T11:23:10.367Z,433.12
2019-05-17T11:24:10.275Z,478.12
2019-05-17T11:25:10.250Z,534.38
2019-05-17T11:26:10.253Z,450.00
2019-05-17T11:27:10.221Z,455.62
2019-05-17T11:28:10.245Z,483.75
2019-05-17T11:29:10.200Z,545.62
2019-05-17T11:30:10.189Z,630.00
2019-05-17T11:31:10.188Z,742.50
2019-05-17T11:32:10.184Z,990.00
2019-05-17T11:33:10.193Z,804.38
2019-05-17T11:34:10.147Z,781.88
2019-05-17T11:35:10.155Z,781.88
2019-05-17T11:36:10.124Z,742.50
2019-05-17T11:37:10.121Z,703.12
2019-05-17T11:38:10.134Z,523.12
2019-05-17T11:39:10.149Z,562.50
2019-05-17T11:40:10.101Z,523.12
2019-05-17T11:41:20.620Z,382.50
2019-05-17T11:42:11.070Z,320.62
2019-05-17T11:43:10.075Z,270.00
2019-05-17T11:44:10.094Z,247.50
2019-05-17T11:45:10.038Z,247.50
2019-05-17T11:46:10.026Z,247.50
2019-05-17T11:47:10.018Z,258.75
2019-05-17T11:48:10.014Z,247.50
2019-05-17T11:49:10.007Z,230.62
2019-05-17T11:50:09.986Z,213.75
2019-05-17T11:51:09.979Z,202.50
2019-05-17T11:52:09.999Z,202.50
2019-05-17T11:54:11.087Z,225.00
2019-05-17T11:55:09.917Z,253.12
2019-05-17T11:56:09.951Z,270.00
2019-05-17T11:57:12.290Z,247.50
2019-05-17T11:58:09.890Z,253.12
2019-05-17T11:59:09.893Z,298.12
2019-05-17T12:00:09.873Z,382.50
2019-05-17T12:01:09.850Z,438.75
2019-05-17T12:02:09.839Z,472.50
2019-05-17T12:03:09.844Z,495.00
2019-05-17T12:04:09.849Z,466.88
2019-05-17T12:05:09.811Z,489.38
2019-05-17T12:06:09.809Z,568.12
2019-05-17T12:07:09.790Z,618.75
2019-05-17T12:08:09.773Z,781.88
2019-05-17T12:09:09.781Z,911.25
2019-05-17T12:10:09.751Z,1029.38
2019-05-17T12:11:09.743Z,1051.88
2019-05-17T12:12:09.733Z,978.75
2019-05-17T12:13:09.714Z,933.75
2019-05-17T12:14:09.725Z,939.38
2019-05-17T12:15:09.694Z,1001.25
2019-05-17T12:16:09.704Z,967.50
2019-05-17T12:17:09.694Z,900.00
2019-05-17T12:18:09.665Z,855.00
2019-05-17T12:19:09.669Z,793.12
2019-05-17T12:20:09.648Z,753.75
2019-05-17T12:21:09.633Z,686.25
2019-05-17T12:22:09.637Z,680.62
2019-05-17T12:23:09.629Z,703.12
2019-05-17T12:24:09.620Z,753.75
2019-05-17T12:25:09.582Z,635.62
2019-05-17T12:26:09.575Z,759.38
2019-05-17T12:27:09.571Z,686.25
2019-05-17T12:28:09.566Z,585.00
2019-05-17T12:29:09.573Z,495.00
2019-05-17T12:30:09.553Z,540.00
2019-05-17T12:31:09.528Z,551.25
2019-05-17T12:32:14.329Z,568.12
2019-05-17T12:33:10.495Z,466.88
2019-05-17T12:34:09.513Z,511.88
2019-05-17T12:35:09.480Z,433.12
2019-05-17T12:36:09.463Z,399.38
2019-05-17T12:37:09.471Z,292.50
2019-05-17T12:38:09.444Z,247.50
2019-05-17T12:39:09.460Z,208.12
2019-05-17T12:40:09.458Z,196.88
2019-05-17T12:41:09.417Z,208.12
2019-05-17T12:42:09.482Z,225.00
2019-05-17T12:43:09.407Z,247.50
2019-05-17T12:44:09.435Z,236.25
2019-05-17T12:45:09.379Z,230.62